Time;durP1;ratioP1;P1;durP2;ratioP2;P2;SDS_P1;SDS_P2;PMS_P1;PMS_P2;Temp;Humidity;BMP_temperature;BMP_pressure;BME280_temperature;BME280_humidity;BME280_pressure;Samples;Min_cycle;Max_cycle;Signal;HPM_P1;HPM_P2
2023/07/11 00:00:28;;;;;;;11.37;10.67;;;17.50;99.90;;;;;;2627015;54;20133;-78
2023/07/11 00:06:18;;;;;;;11.27;10.37;;;17.60;99.90;;;;;;2628571;54;20130;-79
2023/07/11 00:12:06;;;;;;;11.50;10.57;;;17.50;99.90;;;;;;2625863;39;20435;-80
2023/07/11 00:17:55;;;;;;;10.10;9.30;;;17.50;99.90;;;;;;2628153;54;20520;-78
2023/07/11 00:23:43;;;;;;;11.30;10.30;;;17.40;99.90;;;;;;2620588;54;20419;-79
2023/07/11 00:26:54;;;;;;;10.83;9.97;;;17.40;99.90;;;;;;2619353;47;20404;-79
2023/07/11 00:29:20;;;;;;;12.13;11.30;;;17.40;99.90;;;;;;2618852;47;20177;-80
2023/07/11 00:35:09;;;;;;;12.60;10.10;;;17.30;99.90;;;;;;2618306;54;20395;-79
2023/07/11 00:40:56;;;;;;;12.37;10.07;;;17.30;99.90;;;;;;2618471;54;20399;-80
2023/07/11 00:46:44;;;;;;;11.00;10.30;;;17.30;99.90;;;;;;2616672;54;20243;-80
2023/07/11 00:52:35;;;;;;;11.20;10.20;;;17.20;99.90;;;;;;2616107;54;20158;-80
2023/07/11 00:58:25;;;;;;;11.20;10.37;;;17.30;99.90;;;;;;2615550;54;20383;-80
2023/07/11 01:04:14;;;;;;;11.60;10.53;;;17.60;99.90;;;;;;2616571;54;20387;-82
2023/07/11 01:10:04;;;;;;;11.50;10.43;;;18.50;99.90;;;;;;2616522;54;20541;-82
2023/07/11 01:15:52;;;;;;;11.27;10.20;;;18.60;99.90;;;;;;2617210;46;20422;-82
2023/07/11 01:21:40;;;;;;;12.37;11.23;;;18.70;99.90;;;;;;2616932;54;20134;-82
2023/07/11 01:31:24;;;;;;;11.63;11.03;;;18.30;99.90;;;;;;2616778;54;20956;-82
2023/07/11 01:37:12;;;;;;;11.50;10.70;;;18.50;99.90;;;;;;2616577;54;20399;-82
2023/07/11 01:43:00;;;;;;;12.33;11.57;;;18.60;99.90;;;;;;2616138;47;20438;-83
2023/07/11 01:48:48;;;;;;;11.53;10.73;;;18.40;99.90;;;;;;2617021;54;20371;-83
2023/07/11 01:54:36;;;;;;;11.33;10.53;;;18.10;99.90;;;;;;2617005;54;20308;-82
2023/07/11 02:00:23;;;;;;;11.97;11.27;;;18.20;99.90;;;;;;2616715;54;20129;-82
2023/07/11 02:06:11;;;;;;;11.87;10.87;;;17.80;99.90;;;;;;2615645;54;20202;-80
2023/07/11 02:11:59;;;;;;;11.73;10.83;;;17.90;99.90;;;;;;2614749;54;20130;-80
2023/07/11 02:17:47;;;;;;;14.17;11.10;;;18.10;99.90;;;;;;2614267;54;20395;-80
2023/07/11 02:23:34;;;;;;;11.33;10.53;;;18.20;99.90;;;;;;2614513;54;20709;-77
2023/07/11 02:26:53;;;;;;;14.53;9.97;;;18.00;99.90;;;;;;2613610;54;20419;-77
2023/07/11 02:29:19;;;;;;;11.80;11.10;;;18.10;99.90;;;;;;2613067;47;20301;-77
2023/07/11 02:35:07;;;;;;;11.70;10.63;;;18.30;99.90;;;;;;2614828;39;20698;-77
2023/07/11 02:40:55;;;;;;;10.83;10.03;;;18.60;99.90;;;;;;2615418;39;20936;-78
2023/07/11 02:46:43;;;;;;;11.57;10.87;;;18.70;99.90;;;;;;2614117;54;20166;-76
2023/07/11 02:52:34;;;;;;;11.70;10.90;;;18.70;99.90;;;;;;2614212;54;20420;-75
2023/07/11 02:58:22;;;;;;;12.63;11.63;;;18.60;99.90;;;;;;2613867;39;20466;-76
2023/07/11 03:04:09;;;;;;;11.37;10.67;;;18.70;99.90;;;;;;2614454;54;20983;-75
2023/07/11 03:09:57;;;;;;;11.80;11.20;;;18.80;99.90;;;;;;2615910;39;20508;-75
2023/07/11 03:15:45;;;;;;;12.53;11.33;;;18.90;99.90;;;;;;2615803;39;20557;-75
2023/07/11 03:21:33;;;;;;;11.30;10.70;;;19.00;99.90;;;;;;2615120;54;20395;-77
2023/07/11 03:31:20;;;;;;;12.90;11.23;;;19.00;99.90;;;;;;2614608;54;20379;-77
2023/07/11 03:37:09;;;;;;;11.83;11.13;;;19.00;99.90;;;;;;2615593;54;20947;-76
2023/07/11 03:42:57;;;;;;;12.17;11.47;;;19.00;99.90;;;;;;2614956;39;20552;-77
2023/07/11 03:48:45;;;;;;;12.37;11.50;;;19.10;99.90;;;;;;2615830;39;20772;-78
2023/07/11 03:54:32;;;;;;;11.53;10.87;;;19.10;99.90;;;;;;2615431;46;20159;-76
2023/07/11 04:00:20;;;;;;;11.90;11.30;;;19.30;99.90;;;;;;2616341;54;20645;-75
2023/07/11 04:06:08;;;;;;;12.23;11.37;;;19.50;99.90;;;;;;2618699;54;20575;-77
2023/07/11 04:11:56;;;;;;;12.17;11.47;;;19.60;99.90;;;;;;2622830;54;20480;-78
2023/07/11 04:17:44;;;;;;;11.97;11.17;;;19.60;99.90;;;;;;2620873;54;20166;-78
2023/07/11 04:23:32;;;;;;;12.70;11.60;;;19.70;99.90;;;;;;2618996;54;20138;-76
2023/07/11 04:29:37;;;;;;;11.97;11.10;;;19.80;99.90;;;;;;2619829;47;20158;-76
2023/07/11 04:35:24;;;;;;;13.37;12.40;;;20.00;99.90;;;;;;2621456;54;20823;-77
2023/07/11 04:41:12;;;;;;;13.70;12.77;;;20.10;99.90;;;;;;2620246;46;20892;-77
2023/07/11 04:47:00;;;;;;;12.00;11.40;;;20.30;99.90;;;;;;2619878;54;20158;-76
2023/07/11 04:52:49;;;;;;;10.77;10.27;;;20.60;99.90;;;;;;2620999;54;20389;-75
2023/07/11 04:58:36;;;;;;;12.00;10.80;;;20.80;99.90;;;;;;2617187;54;20428;-75
2023/07/11 05:04:24;;;;;;;13.13;12.23;;;21.00;99.90;;;;;;2617440;31;20779;-81
2023/07/11 05:07:27;;;;;;;13.53;12.47;;;21.20;91.60;;;;;;2618614;54;20439;-80
2023/07/11 05:09:52;;;;;;;11.60;10.90;;;21.30;82.40;;;;;;2617583;47;20184;-78
2023/07/11 05:15:40;;;;;;;12.70;12.00;;;21.60;60.60;;;;;;2615162;54;20135;-81
2023/07/11 05:21:28;;;;;;;13.40;12.60;;;22.00;44.00;;;;;;2614984;54;20134;-81
2023/07/11 05:31:25;;;;;;;14.77;14.00;;;22.50;23.70;;;;;;2615191;54;20974;-82
2023/07/11 05:37:14;;;;;;;13.53;12.87;;;22.80;21.80;;;;;;2614894;39;20682;-82
2023/07/11 05:43:02;;;;;;;14.30;12.90;;;22.70;24.10;;;;;;2614866;54;20452;-84
2023/07/11 05:48:50;;;;;;;13.83;13.03;;;22.90;20.00;;;;;;2614723;54;20157;-83
2023/07/11 05:54:38;;;;;;;13.43;12.40;;;23.20;16.80;;;;;;2615316;54;21272;-83
2023/07/11 06:00:26;;;;;;;13.43;12.73;;;23.60;5.60;;;;;;2615182;54;20167;-84
2023/07/11 06:06:23;;;;;;;14.83;13.80;;;24.30;1.00;;;;;;2613390;54;20173;-81
2023/07/11 06:12:10;;;;;;;13.57;12.60;;;24.60;1.00;;;;;;2613120;54;20207;-81
2023/07/11 06:17:57;;;;;;;13.47;12.77;;;24.70;1.00;;;;;;2614270;54;20353;-81
2023/07/11 06:23:44;;;;;;;13.20;12.50;;;24.90;1.00;;;;;;2613946;54;20199;-81
2023/07/11 06:26:54;;;;;;;14.20;13.40;;;25.30;1.00;;;;;;2614176;54;20439;-82
2023/07/11 06:29:20;;;;;;;13.60;12.90;;;25.10;1.00;;;;;;2613670;54;20180;-81
2023/07/11 06:35:08;;;;;;;12.27;11.67;;;25.00;1.00;;;;;;2614162;54;20426;-80
2023/07/11 06:40:56;;;;;;;13.37;12.57;;;25.40;1.00;;;;;;2614293;54;20399;-81
2023/07/11 06:46:44;;;;;;;12.80;12.20;;;25.80;1.00;;;;;;2615678;54;20390;-79
2023/07/11 06:52:32;;;;;;;13.83;12.90;;;26.70;1.00;;;;;;2615775;54;20135;-80
2023/07/11 06:58:20;;;;;;;13.77;12.97;;;26.60;1.00;;;;;;2615792;54;20138;-81
2023/07/11 07:04:08;;;;;;;13.93;13.07;;;26.50;1.00;;;;;;2613879;54;20465;-81
2023/07/11 07:09:58;;;;;;;14.67;13.87;;;27.20;1.00;;;;;;2617247;54;20175;-84
2023/07/11 07:15:51;;;;;;;13.70;13.10;;;26.80;1.00;;;;;;2617969;39;20469;-83
2023/07/11 07:21:39;;;;;;;13.57;12.97;;;27.40;1.00;;;;;;2622336;54;20603;-80
2023/07/11 07:37:49;;;;;;;13.60;12.90;;;27.50;1.00;;;;;;2617942;54;20462;-78
2023/07/11 07:43:39;;;;;;;13.80;13.20;;;27.50;1.00;;;;;;2621549;39;20566;-78
2023/07/11 07:49:26;;;;;;;13.03;12.43;;;28.00;1.00;;;;;;2621941;54;20444;-80
2023/07/11 07:58:35;;;;;;;13.83;12.73;;;28.60;1.00;;;;;;2627832;39;20706;-80
2023/07/11 08:04:23;;;;;;;13.97;13.27;;;28.70;1.00;;;;;;2623854;54;20127;-80
2023/07/11 08:10:11;;;;;;;14.50;13.50;;;29.00;1.00;;;;;;2623304;39;20527;-81
2023/07/11 08:15:58;;;;;;;13.30;12.50;;;28.90;1.00;;;;;;2616369;54;20160;-80
2023/07/11 08:21:46;;;;;;;13.00;12.30;;;29.50;1.00;;;;;;2615779;54;20155;-81
2023/07/11 08:27:34;;;;;;;13.27;12.63;;;29.60;1.00;;;;;;2617343;54;20240;-81
2023/07/11 08:33:22;;;;;;;13.87;13.00;;;29.30;1.00;;;;;;2615593;54;20154;-81
2023/07/11 08:39:10;;;;;;;12.43;11.63;;;28.80;1.00;;;;;;2615678;39;20518;-78
2023/07/11 08:51:40;;;;;;;14.03;13.13;;;29.00;1.00;;;;;;2615970;54;20444;-80
2023/07/11 08:57:32;;;;;;;13.77;12.77;;;28.60;1.00;;;;;;2616131;54;20411;-80
2023/07/11 09:09:48;;;;;;;13.27;12.40;;;30.20;1.00;;;;;;2614230;39;20765;-80
2023/07/11 09:32:13;;;;;;;14.30;13.30;;;30.30;1.00;;;;;;2615240;54;20466;-78
2023/07/11 09:38:10;;;;;;;13.93;12.70;;;29.90;1.00;;;;;;2616524;54;20423;-78
2023/07/11 09:43:57;;;;;;;13.10;12.30;;;31.20;1.00;;;;;;2617214;54;20970;-79
2023/07/11 09:49:48;;;;;;;14.43;13.47;;;31.50;1.00;;;;;;2620014;54;20159;-83
2023/07/11 09:55:36;;;;;;;13.53;12.57;;;30.60;1.00;;;;;;2618803;54;20379;-77
2023/07/11 10:07:38;;;;;;;13.33;12.60;;;30.70;1.00;;;;;;2620704;47;20423;-84
2023/07/11 10:13:26;;;;;;;14.27;13.23;;;30.10;1.00;;;;;;2618509;54;20166;-83
2023/07/11 10:19:18;;;;;;;14.70;13.70;;;30.50;1.00;;;;;;2617047;54;20129;-78
2023/07/11 10:25:14;;;;;;;13.97;13.00;;;30.20;1.00;;;;;;2614970;54;20961;-78
2023/07/11 10:31:28;;;;;;;14.60;13.23;;;30.00;1.00;;;;;;2611815;54;20430;-76
2023/07/11 10:44:04;;;;;;;14.90;14.00;;;30.70;1.00;;;;;;2614332;54;20374;-81
2023/07/11 10:49:52;;;;;;;13.23;12.53;;;31.70;1.00;;;;;;2612207;54;20491;-79
2023/07/11 11:02:05;;;;;;;13.47;12.77;;;31.00;1.00;;;;;;2613690;54;20451;-78
2023/07/11 11:20:56;;;;;;;13.00;12.40;;;30.90;1.00;;;;;;2615987;39;20566;-80
2023/07/11 11:43:14;;;;;;;14.77;13.80;;;32.50;1.00;;;;;;2615502;54;20359;-81
2023/07/11 11:49:05;;;;;;;16.27;15.17;;;33.10;1.00;;;;;;2614726;54;20406;-79
2023/07/11 11:54:53;;;;;;;14.90;14.10;;;32.00;1.00;;;;;;2615838;54;20391;-79
2023/07/11 12:00:50;;;;;;;14.40;13.57;;;32.30;1.00;;;;;;2614801;54;20185;-79
2023/07/11 12:03:44;;;;;;;13.60;12.80;;;31.90;1.00;;;;;;2614071;54;20427;-79
2023/07/11 12:12:39;;;;;;;14.73;13.80;;;31.90;1.00;;;;;;2613867;54;20399;-77
2023/07/11 12:18:28;;;;;;;14.20;13.20;;;32.90;1.00;;;;;;2613317;54;20141;-78
2023/07/11 12:24:21;;;;;;;14.47;13.37;;;32.50;1.00;;;;;;2613931;54;20463;-77
2023/07/11 12:37:00;;;;;;;14.80;13.90;;;32.50;1.00;;;;;;2612548;54;20474;-76
2023/07/11 12:52:22;;;;;;;15.93;14.83;;;33.10;1.00;;;;;;2613603;54;20431;-77
2023/07/11 12:58:18;;;;;;;16.33;15.53;;;33.30;1.00;;;;;;2614467;54;20479;-78
2023/07/11 13:04:07;;;;;;;15.43;14.57;;;32.50;1.00;;;;;;2612999;54;20422;-77
2023/07/11 13:09:57;;;;;;;16.17;15.20;;;32.80;1.00;;;;;;2608964;54;21431;-77
2023/07/11 13:15:46;;;;;;;16.77;15.87;;;33.50;1.00;;;;;;2611272;54;20394;-78
2023/07/11 13:21:34;;;;;;;16.73;15.47;;;33.90;1.00;;;;;;2615067;54;20495;-80
2023/07/11 13:24:38;;;;;;;15.83;14.93;;;33.60;1.00;;;;;;2613001;54;20408;-80
2023/07/11 13:27:05;;;;;;;15.83;15.03;;;33.80;1.00;;;;;;2612938;54;20143;-80
2023/07/11 13:32:56;;;;;;;16.90;15.70;;;33.30;1.00;;;;;;2613457;54;20395;-79
2023/07/11 13:38:48;;;;;;;16.40;15.50;;;34.00;1.00;;;;;;2614496;54;20496;-80
2023/07/11 13:57:39;;;;;;;15.67;14.90;;;32.80;1.00;;;;;;2613770;54;20407;-78
2023/07/11 14:03:26;;;;;;;16.10;15.10;;;33.70;1.00;;;;;;2612952;54;20157;-79
2023/07/11 14:09:14;;;;;;;15.50;14.70;;;33.70;1.00;;;;;;2614072;54;20167;-78
2023/07/11 14:21:17;;;;;;;16.57;15.57;;;33.70;1.00;;;;;;2615561;54;20421;-84
2023/07/11 14:27:11;;;;;;;15.47;14.50;;;34.10;1.00;;;;;;2616701;54;20391;-84
2023/07/11 14:32:59;;;;;;;15.37;14.50;;;33.60;1.00;;;;;;2616557;54;20371;-83
2023/07/11 14:38:46;;;;;;;16.90;15.97;;;33.70;1.00;;;;;;2617282;54;20153;-84
2023/07/11 14:44:34;;;;;;;16.07;15.07;;;33.80;1.00;;;;;;2616275;54;20129;-84
2023/07/11 14:50:26;;;;;;;15.27;14.47;;;33.20;1.00;;;;;;2616364;54;20146;-82
2023/07/11 14:56:18;;;;;;;15.70;14.70;;;33.60;1.00;;;;;;2616552;54;20415;-82
2023/07/11 15:08:42;;;;;;;15.93;14.70;;;33.40;1.00;;;;;;2617267;54;20399;-82
2023/07/11 15:14:30;;;;;;;15.20;14.40;;;33.60;1.00;;;;;;2620210;54;20125;-76
2023/07/11 15:20:20;;;;;;;14.73;14.03;;;33.60;1.00;;;;;;2626191;54;20122;-76
2023/07/11 15:26:09;;;;;;;14.93;14.23;;;34.10;1.00;;;;;;2624225;46;20411;-78
2023/07/11 15:31:57;;;;;;;15.70;15.00;;;34.00;1.00;;;;;;2617859;54;20669;-78
2023/07/11 15:34:50;;;;;;;15.90;15.00;;;34.70;1.00;;;;;;2622890;54;20463;-85
2023/07/11 15:37:16;;;;;;;15.50;14.70;;;33.90;1.00;;;;;;2625329;47;20593;-82
2023/07/11 15:43:04;;;;;;;15.90;15.00;;;33.70;1.00;;;;;;2618333;54;20138;-85
2023/07/11 15:48:56;;;;;;;16.00;14.80;;;33.90;1.00;;;;;;2618414;54;20444;-84
2023/07/11 15:54:45;;;;;;;16.00;15.20;;;34.40;1.00;;;;;;2617706;46;20440;-84
2023/07/11 16:00:34;;;;;;;17.20;16.10;;;33.70;1.00;;;;;;2618130;39;20800;-85
2023/07/11 16:06:21;;;;;;;18.27;16.93;;;33.20;1.00;;;;;;2617875;54;20428;-85
2023/07/11 16:12:16;;;;;;;18.20;17.10;;;34.20;1.00;;;;;;2617388;54;20224;-84
2023/07/11 16:24:23;;;;;;;18.00;16.90;;;32.60;1.00;;;;;;2615614;54;20438;-79
2023/07/11 16:30:18;;;;;;;19.10;17.70;;;33.60;1.00;;;;;;2616337;39;20803;-82
2023/07/11 16:39:30;;;;;;;17.10;16.10;;;32.90;1.00;;;;;;2615578;54;20443;-80
2023/07/11 16:45:20;;;;;;;16.67;15.43;;;33.00;1.00;;;;;;2614606;54;20412;-79
2023/07/11 16:57:45;;;;;;;15.70;15.00;;;32.40;1.00;;;;;;2614351;54;20387;-81
2023/07/11 17:03:33;;;;;;;16.57;15.80;;;31.90;1.00;;;;;;2615439;54;20388;-81
2023/07/11 17:09:23;;;;;;;15.50;14.80;;;32.00;1.00;;;;;;2615487;54;20142;-81
2023/07/11 17:15:17;;;;;;;15.17;14.50;;;32.00;1.00;;;;;;2615231;54;20380;-84
2023/07/11 17:21:09;;;;;;;16.83;16.00;;;31.40;1.00;;;;;;2615904;39;20710;-84
2023/07/11 17:27:03;;;;;;;16.23;15.33;;;31.60;1.00;;;;;;2616302;54;20415;-84
2023/07/11 17:32:51;;;;;;;16.43;15.63;;;31.40;1.00;;;;;;2614207;54;20387;-83
2023/07/11 17:38:40;;;;;;;15.60;14.90;;;31.60;1.00;;;;;;2619988;54;20130;-81
2023/07/11 17:44:30;;;;;;;16.77;15.50;;;31.40;1.00;;;;;;2614158;54;20455;-82
2023/07/11 17:50:24;;;;;;;15.90;15.10;;;31.30;1.00;;;;;;2615863;39;20798;-78
2023/07/11 17:56:13;;;;;;;16.50;15.30;;;30.60;1.00;;;;;;2616489;39;20769;-84
2023/07/11 18:02:01;;;;;;;16.70;15.90;;;30.30;1.00;;;;;;2616577;54;20380;-85
2023/07/11 18:07:51;;;;;;;16.83;16.03;;;29.90;1.00;;;;;;2617127;54;20428;-81
2023/07/11 18:13:39;;;;;;;16.63;15.73;;;29.90;1.00;;;;;;2627831;54;20391;-79
2023/07/11 18:19:27;;;;;;;16.80;15.90;;;29.70;1.00;;;;;;2628232;54;20123;-77
2023/07/11 18:25:17;;;;;;;17.63;16.53;;;29.60;1.00;;;;;;2629077;54;20143;-79
2023/07/11 18:31:12;;;;;;;17.37;16.57;;;29.40;1.00;;;;;;2627692;54;20459;-78
2023/07/11 18:37:00;;;;;;;18.60;17.53;;;29.10;1.00;;;;;;2624330;54;20439;-78
2023/07/11 18:49:32;;;;;;;18.20;17.20;;;28.80;1.00;;;;;;2628252;54;20375;-77
2023/07/11 18:55:20;;;;;;;17.30;16.50;;;28.50;1.00;;;;;;2628974;54;20149;-79
2023/07/11 19:01:10;;;;;;;18.27;17.30;;;28.30;1.00;;;;;;2627700;54;20171;-79
2023/07/11 19:07:00;;;;;;;17.97;16.97;;;28.20;1.00;;;;;;2625996;54;20406;-78
2023/07/11 19:12:48;;;;;;;17.23;16.23;;;28.10;1.00;;;;;;2621791;54;20411;-77
2023/07/11 19:18:36;;;;;;;17.60;16.50;;;27.90;1.00;;;;;;2623492;54;20182;-83
2023/07/11 19:21:40;;;;;;;17.70;16.80;;;27.80;1.00;;;;;;2621803;54;20399;-83
2023/07/11 19:24:06;;;;;;;17.43;16.63;;;27.70;1.00;;;;;;2621413;47;20189;-83
2023/07/11 19:29:54;;;;;;;17.27;16.53;;;27.40;1.00;;;;;;2619822;54;20403;-82
2023/07/11 19:42:20;;;;;;;17.33;16.20;;;26.80;1.00;;;;;;2619633;39;20450;-81
2023/07/11 19:48:19;;;;;;;18.03;17.13;;;26.70;1.00;;;;;;2619688;54;20449;-82
2023/07/11 19:54:09;;;;;;;18.10;16.70;;;26.90;1.00;;;;;;2617759;54;20530;-82
2023/07/11 19:59:57;;;;;;;18.43;17.47;;;26.80;1.00;;;;;;2617807;54;20428;-82
2023/07/11 20:05:46;;;;;;;18.27;17.00;;;26.60;1.50;;;;;;2617255;54;20142;-82
2023/07/11 20:11:34;;;;;;;17.00;16.10;;;26.50;1.00;;;;;;2617534;54;20937;-82
2023/07/11 20:17:26;;;;;;;18.53;17.63;;;26.10;19.00;;;;;;2617825;39;20532;-82
2023/07/11 20:23:14;;;;;;;17.53;16.73;;;26.30;2.60;;;;;;2616890;54;20459;-82
2023/07/11 20:29:08;;;;;;;18.80;17.50;;;25.80;23.30;;;;;;2616704;54;20150;-82
2023/07/11 20:34:55;;;;;;;18.43;16.80;;;25.50;45.80;;;;;;2617181;54;20455;-82
2023/07/11 20:40:45;;;;;;;16.80;15.70;;;25.30;50.80;;;;;;2616380;54;20149;-82
2023/07/11 20:46:33;;;;;;;18.47;17.37;;;25.20;45.00;;;;;;2618439;54;20387;-84
2023/07/11 20:52:20;;;;;;;15.70;14.87;;;25.40;66.90;;;;;;2618987;54;20121;-83
2023/07/11 20:58:12;;;;;;;16.93;15.87;;;25.10;80.30;;;;;;2618446;54;20130;-84
2023/07/11 21:04:00;;;;;;;15.80;15.00;;;24.80;88.60;;;;;;2618777;54;20412;-84
2023/07/11 21:09:47;;;;;;;16.37;15.37;;;24.60;99.90;;;;;;2618471;54;20227;-83
2023/07/11 21:15:36;;;;;;;16.30;15.40;;;24.50;99.90;;;;;;2620127;31;20603;-84
2023/07/11 21:21:24;;;;;;;16.17;15.07;;;24.40;99.90;;;;;;2618886;54;21078;-84
2023/07/11 21:27:12;;;;;;;16.87;15.43;;;24.20;99.90;;;;;;2618836;54;20167;-84
2023/07/11 21:36:24;;;;;;;16.10;15.30;;;23.90;99.90;;;;;;2615340;54;20529;-84
2023/07/11 21:42:12;;;;;;;16.33;15.23;;;23.80;99.90;;;;;;2615597;39;20747;-82
2023/07/11 21:48:00;;;;;;;15.70;14.77;;;23.80;99.90;;;;;;2613361;54;20154;-84
2023/07/11 21:53:48;;;;;;;16.20;15.10;;;23.50;99.90;;;;;;2616130;54;20435;-83
2023/07/11 21:59:36;;;;;;;16.03;15.00;;;23.30;99.90;;;;;;2612959;54;20417;-77
2023/07/11 22:05:24;;;;;;;15.43;14.33;;;23.10;99.90;;;;;;2611901;54;20263;-77
2023/07/11 22:11:15;;;;;;;15.07;14.00;;;23.10;99.90;;;;;;2611018;39;20549;-78
2023/07/11 22:17:03;;;;;;;16.30;14.73;;;22.80;99.90;;;;;;2612263;54;20416;-77
2023/07/11 22:22:52;;;;;;;14.70;13.70;;;22.80;99.90;;;;;;2611700;54;20134;-76
2023/07/11 22:28:40;;;;;;;14.47;13.67;;;23.30;99.90;;;;;;2611437;54;20579;-77
2023/07/11 22:34:28;;;;;;;14.50;13.60;;;23.70;99.90;;;;;;2610003;54;20171;-78
2023/07/11 22:40:33;;;;;;;14.37;13.37;;;23.40;99.90;;;;;;2608046;54;20174;-76
2023/07/11 22:49:43;;;;;;;12.63;11.63;;;23.00;99.90;;;;;;2613516;39;20797;-77
2023/07/11 22:55:33;;;;;;;12.90;11.90;;;22.70;99.90;;;;;;2613022;54;20816;-77
2023/07/11 23:01:21;;;;;;;12.90;12.00;;;22.60;99.90;;;;;;2613040;54;20395;-76
2023/07/11 23:07:09;;;;;;;12.37;11.17;;;22.60;99.90;;;;;;2614128;54;20391;-78
2023/07/11 23:12:59;;;;;;;12.33;11.63;;;22.60;99.90;;;;;;2615169;31;20566;-77
2023/07/11 23:18:47;;;;;;;13.00;12.10;;;22.50;99.90;;;;;;2614001;54;20399;-77
2023/07/11 23:24:35;;;;;;;12.10;10.87;;;22.50;99.90;;;;;;2614907;54;20199;-76
2023/07/11 23:30:29;;;;;;;11.87;10.90;;;22.50;99.90;;;;;;2614413;31;20914;-76
2023/07/11 23:36:21;;;;;;;13.00;12.10;;;22.30;99.90;;;;;;2614465;54;20391;-77
2023/07/11 23:39:05;;;;;;;13.37;11.87;;;22.20;99.90;;;;;;2613508;47;20431;-76
2023/07/11 23:41:31;;;;;;;11.90;11.00;;;22.00;99.90;;;;;;2612937;39;20860;-78
2023/07/11 23:47:18;;;;;;;14.53;10.13;;;22.00;99.90;;;;;;2614532;54;20186;-78
2023/07/11 23:53:08;;;;;;;11.10;10.20;;;21.90;99.90;;;;;;2614174;54;20661;-76
2023/07/11 23:58:56;;;;;;;9.70;9.00;;;21.70;99.90;;;;;;2613941;54;20390;-77
